sensor_id;sensor_type;location;lat;lon;timestamp;pressure;altitude;pressure_sealevel;temperature;humidity
65614;BME280;52283;49.292;10.572;2024-02-15T00:01:42;96916.38;;;9.88;100.00
65614;BME280;52283;49.292;10.572;2024-02-15T00:04:10;96919.09;;;9.83;100.00
65614;BME280;52283;49.292;10.572;2024-02-15T00:06:36;96927.34;;;9.92;100.00
65614;BME280;52283;49.292;10.572;2024-02-15T00:09:03;96920.63;;;9.63;100.00
65614;BME280;52283;49.292;10.572;2024-02-15T00:11:29;96918.09;;;9.65;100.00
65614;BME280;52283;49.292;10.572;2024-02-15T00:13:56;96921.50;;;9.55;100.00
65614;BME280;52283;49.292;10.572;2024-02-15T00:16:23;96916.91;;;9.37;100.00
65614;BME280;52283;49.292;10.572;2024-02-15T00:18:50;96912.91;;;9.38;100.00
65614;BME280;52283;49.292;10.572;2024-02-15T00:21:18;96917.03;;;9.28;100.00
65614;BME280;52283;49.292;10.572;2024-02-15T00:23:44;96904.16;;;9.30;100.00
65614;BME280;52283;49.292;10.572;2024-02-15T00:26:11;96920.88;;;9.30;100.00
65614;BME280;52283;49.292;10.572;2024-02-15T00:28:37;96913.47;;;9.27;100.00
65614;BME280;52283;49.292;10.572;2024-02-15T00:31:04;96916.53;;;9.44;100.00
65614;BME280;52283;49.292;10.572;2024-02-15T00:33:30;96910.56;;;9.36;100.00
65614;BME280;52283;49.292;10.572;2024-02-15T00:35:57;96906.69;;;9.48;100.00
65614;BME280;52283;49.292;10.572;2024-02-15T00:38:25;96915.97;;;9.40;100.00
65614;BME280;52283;49.292;10.572;2024-02-15T00:40:52;96908.16;;;9.44;100.00
65614;BME280;52283;49.292;10.572;2024-02-15T00:43:18;96905.88;;;9.42;100.00
65614;BME280;52283;49.292;10.572;2024-02-15T00:45:45;96908.22;;;9.50;100.00
65614;BME280;52283;49.292;10.572;2024-02-15T00:48:11;96902.44;;;9.53;100.00
65614;BME280;52283;49.292;10.572;2024-02-15T00:50:38;96905.34;;;9.59;100.00
65614;BME280;52283;49.292;10.572;2024-02-15T00:53:05;96902.06;;;9.60;100.00
65614;BME280;52283;49.292;10.572;2024-02-15T00:55:32;96900.53;;;9.59;100.00
65614;BME280;52283;49.292;10.572;2024-02-15T00:57:59;96901.16;;;9.69;100.00
65614;BME280;52283;49.292;10.572;2024-02-15T01:00:25;96908.13;;;9.59;100.00
65614;BME280;52283;49.292;10.572;2024-02-15T01:02:52;96906.56;;;9.58;100.00
65614;BME280;52283;49.292;10.572;2024-02-15T01:05:19;96907.97;;;9.47;100.00
65614;BME280;52283;49.292;10.572;2024-02-15T01:07:47;96906.00;;;9.54;100.00
65614;BME280;52283;49.292;10.572;2024-02-15T01:10:14;96908.00;;;9.68;100.00
65614;BME280;52283;49.292;10.572;2024-02-15T01:12:42;96910.50;;;9.66;100.00
65614;BME280;52283;49.292;10.572;2024-02-15T01:15:09;96908.22;;;9.85;100.00
65614;BME280;52283;49.292;10.572;2024-02-15T01:17:36;96915.13;;;9.89;100.00
65614;BME280;52283;49.292;10.572;2024-02-15T01:20:03;96910.94;;;9.99;100.00
65614;BME280;52283;49.292;10.572;2024-02-15T01:22:30;96916.53;;;9.79;100.00
65614;BME280;52283;49.292;10.572;2024-02-15T01:24:57;96909.06;;;9.56;100.00
65614;BME280;52283;49.292;10.572;2024-02-15T01:27:23;96909.59;;;9.74;100.00
65614;BME280;52283;49.292;10.572;2024-02-15T01:29:52;96906.28;;;9.56;100.00
65614;BME280;52283;49.292;10.572;2024-02-15T01:32:19;96901.72;;;9.73;100.00
65614;BME280;52283;49.292;10.572;2024-02-15T01:34:46;96901.00;;;9.78;100.00
65614;BME280;52283;49.292;10.572;2024-02-15T01:37:12;96896.28;;;9.84;100.00
65614;BME280;52283;49.292;10.572;2024-02-15T01:39:39;96897.53;;;9.83;100.00
65614;BME280;52283;49.292;10.572;2024-02-15T01:42:05;96886.75;;;9.56;100.00
65614;BME280;52283;49.292;10.572;2024-02-15T01:44:32;96890.59;;;9.78;100.00
65614;BME280;52283;49.292;10.572;2024-02-15T01:47:00;96902.63;;;9.64;100.00
65614;BME280;52283;49.292;10.572;2024-02-15T01:49:27;96904.00;;;9.74;100.00
65614;BME280;52283;49.292;10.572;2024-02-15T01:51:54;96906.53;;;9.72;100.00
65614;BME280;52283;49.292;10.572;2024-02-15T01:54:23;96904.72;;;9.69;100.00
65614;BME280;52283;49.292;10.572;2024-02-15T01:56:51;96907.00;;;9.71;100.00
65614;BME280;52283;49.292;10.572;2024-02-15T01:59:17;96905.13;;;9.62;100.00
65614;BME280;52283;49.292;10.572;2024-02-15T02:01:44;96906.88;;;9.60;100.00
65614;BME280;52283;49.292;10.572;2024-02-15T02:04:12;96901.44;;;9.71;100.00
65614;BME280;52283;49.292;10.572;2024-02-15T02:06:39;96902.41;;;9.68;100.00
65614;BME280;52283;49.292;10.572;2024-02-15T02:09:06;96904.91;;;9.66;100.00
65614;BME280;52283;49.292;10.572;2024-02-15T02:11:35;96891.72;;;9.46;100.00
65614;BME280;52283;49.292;10.572;2024-02-15T02:14:01;96897.59;;;9.33;100.00
65614;BME280;52283;49.292;10.572;2024-02-15T02:16:29;96902.88;;;9.31;100.00
65614;BME280;52283;49.292;10.572;2024-02-15T02:18:57;96897.03;;;9.29;100.00
65614;BME280;52283;49.292;10.572;2024-02-15T02:21:25;96897.72;;;9.24;100.00
65614;BME280;52283;49.292;10.572;2024-02-15T02:23:55;96895.22;;;9.26;100.00
65614;BME280;52283;49.292;10.572;2024-02-15T02:26:24;96899.63;;;9.33;100.00
65614;BME280;52283;49.292;10.572;2024-02-15T02:28:51;96892.44;;;9.26;100.00
65614;BME280;52283;49.292;10.572;2024-02-15T02:31:18;96892.00;;;9.33;100.00
65614;BME280;52283;49.292;10.572;2024-02-15T02:33:47;96900.19;;;9.37;100.00
65614;BME280;52283;49.292;10.572;2024-02-15T02:36:14;96891.03;;;9.36;100.00
65614;BME280;52283;49.292;10.572;2024-02-15T02:38:42;96888.16;;;9.45;100.00
65614;BME280;52283;49.292;10.572;2024-02-15T02:41:10;96891.44;;;9.44;100.00
65614;BME280;52283;49.292;10.572;2024-02-15T02:43:39;96882.56;;;9.45;100.00
65614;BME280;52283;49.292;10.572;2024-02-15T02:46:05;96880.97;;;9.39;100.00
65614;BME280;52283;49.292;10.572;2024-02-15T02:48:32;96882.50;;;9.40;100.00
65614;BME280;52283;49.292;10.572;2024-02-15T02:50:59;96875.88;;;9.37;100.00
65614;BME280;52283;49.292;10.572;2024-02-15T02:53:25;96887.44;;;9.51;100.00
65614;BME280;52283;49.292;10.572;2024-02-15T02:55:52;96880.69;;;9.57;100.00
65614;BME280;52283;49.292;10.572;2024-02-15T02:58:18;96886.22;;;9.72;100.00
65614;BME280;52283;49.292;10.572;2024-02-15T03:00:46;96881.97;;;9.76;100.00
65614;BME280;52283;49.292;10.572;2024-02-15T03:03:13;96885.59;;;9.83;100.00
65614;BME280;52283;49.292;10.572;2024-02-15T03:05:39;96884.97;;;9.93;100.00
65614;BME280;52283;49.292;10.572;2024-02-15T03:08:08;96887.00;;;9.93;100.00
65614;BME280;52283;49.292;10.572;2024-02-15T03:10:34;96888.81;;;9.96;100.00
65614;BME280;52283;49.292;10.572;2024-02-15T03:13:01;96889.50;;;9.91;100.00
65614;BME280;52283;49.292;10.572;2024-02-15T03:15:30;96890.63;;;9.99;100.00
65614;BME280;52283;49.292;10.572;2024-02-15T03:17:59;96886.09;;;10.01;100.00
65614;BME280;52283;49.292;10.572;2024-02-15T03:20:28;96886.09;;;9.81;100.00
65614;BME280;52283;49.292;10.572;2024-02-15T03:22:55;96889.44;;;9.65;100.00
65614;BME280;52283;49.292;10.572;2024-02-15T03:25:22;96886.09;;;9.61;100.00
65614;BME280;52283;49.292;10.572;2024-02-15T03:27:50;96884.25;;;9.58;100.00
65614;BME280;52283;49.292;10.572;2024-02-15T03:30:18;96884.03;;;9.41;100.00
65614;BME280;52283;49.292;10.572;2024-02-15T03:32:45;96877.41;;;9.38;100.00
65614;BME280;52283;49.292;10.572;2024-02-15T03:35:18;96877.72;;;9.26;100.00
65614;BME280;52283;49.292;10.572;2024-02-15T03:37:44;96878.84;;;9.34;100.00
65614;BME280;52283;49.292;10.572;2024-02-15T03:40:11;96866.75;;;9.22;100.00
65614;BME280;52283;49.292;10.572;2024-02-15T03:42:38;96865.31;;;9.27;100.00
65614;BME280;52283;49.292;10.572;2024-02-15T03:45:05;96862.44;;;9.21;100.00
65614;BME280;52283;49.292;10.572;2024-02-15T03:47:32;96871.38;;;9.25;100.00
65614;BME280;52283;49.292;10.572;2024-02-15T03:49:59;96859.81;;;9.32;100.00
65614;BME280;52283;49.292;10.572;2024-02-15T03:52:26;96860.78;;;9.29;100.00
65614;BME280;52283;49.292;10.572;2024-02-15T03:54:55;96865.44;;;9.18;100.00
65614;BME280;52283;49.292;10.572;2024-02-15T03:57:22;96851.13;;;9.10;100.00
65614;BME280;52283;49.292;10.572;2024-02-15T03:59:48;96861.50;;;9.09;100.00
65614;BME280;52283;49.292;10.572;2024-02-15T04:02:18;96864.28;;;9.09;100.00
65614;BME280;52283;49.292;10.572;2024-02-15T04:04:44;96860.72;;;9.09;100.00
65614;BME280;52283;49.292;10.572;2024-02-15T04:07:12;96862.94;;;9.05;100.00
65614;BME280;52283;49.292;10.572;2024-02-15T04:09:41;96870.47;;;8.99;100.00
65614;BME280;52283;49.292;10.572;2024-02-15T04:12:07;96865.13;;;9.15;100.00
65614;BME280;52283;49.292;10.572;2024-02-15T04:14:34;96875.91;;;9.08;100.00
65614;BME280;52283;49.292;10.572;2024-02-15T04:17:00;96875.91;;;9.08;100.00
65614;BME280;52283;49.292;10.572;2024-02-15T04:19:28;96880.03;;;9.12;100.00
65614;BME280;52283;49.292;10.572;2024-02-15T04:21:55;96875.50;;;9.15;100.00
65614;BME280;52283;49.292;10.572;2024-02-15T04:24:22;96878.44;;;9.06;100.00
65614;BME280;52283;49.292;10.572;2024-02-15T04:26:50;96873.34;;;9.04;100.00
65614;BME280;52283;49.292;10.572;2024-02-15T04:29:17;96879.19;;;9.06;100.00
65614;BME280;52283;49.292;10.572;2024-02-15T04:31:45;96875.06;;;9.02;100.00
65614;BME280;52283;49.292;10.572;2024-02-15T04:34:14;96870.97;;;8.97;100.00
65614;BME280;52283;49.292;10.572;2024-02-15T04:36:41;96871.63;;;8.92;100.00
65614;BME280;52283;49.292;10.572;2024-02-15T04:39:08;96871.72;;;8.98;100.00
65614;BME280;52283;49.292;10.572;2024-02-15T04:41:35;96870.56;;;8.90;100.00
65614;BME280;52283;49.292;10.572;2024-02-15T04:44:05;96867.00;;;8.89;100.00
65614;BME280;52283;49.292;10.572;2024-02-15T04:46:33;96868.75;;;8.86;100.00
65614;BME280;52283;49.292;10.572;2024-02-15T04:49:00;96875.63;;;9.06;100.00
65614;BME280;52283;49.292;10.572;2024-02-15T04:51:28;96874.09;;;9.05;100.00
65614;BME280;52283;49.292;10.572;2024-02-15T04:53:54;96877.66;;;8.91;100.00
65614;BME280;52283;49.292;10.572;2024-02-15T04:56:22;96884.88;;;8.68;100.00
65614;BME280;52283;49.292;10.572;2024-02-15T04:58:49;96877.97;;;8.63;100.00
65614;BME280;52283;49.292;10.572;2024-02-15T05:01:17;96882.09;;;8.00;100.00
65614;BME280;52283;49.292;10.572;2024-02-15T05:03:44;96885.31;;;7.83;100.00
65614;BME280;52283;49.292;10.572;2024-02-15T05:06:11;96878.78;;;7.86;100.00
65614;BME280;52283;49.292;10.572;2024-02-15T05:08:39;96870.66;;;7.98;100.00
65614;BME280;52283;49.292;10.572;2024-02-15T05:11:08;96875.47;;;8.12;100.00
65614;BME280;52283;49.292;10.572;2024-02-15T05:13:38;96880.88;;;8.15;100.00
65614;BME280;52283;49.292;10.572;2024-02-15T05:16:05;96883.53;;;7.95;100.00
65614;BME280;52283;49.292;10.572;2024-02-15T05:18:33;96885.41;;;7.89;100.00
65614;BME280;52283;49.292;10.572;2024-02-15T05:21:01;96896.66;;;7.94;100.00
65614;BME280;52283;49.292;10.572;2024-02-15T05:23:28;96884.34;;;7.62;100.00
65614;BME280;52283;49.292;10.572;2024-02-15T05:25:55;96881.53;;;7.72;100.00
65614;BME280;52283;49.292;10.572;2024-02-15T05:28:23;96875.28;;;8.01;100.00
65614;BME280;52283;49.292;10.572;2024-02-15T05:31:09;96879.97;;;7.94;100.00
65614;BME280;52283;49.292;10.572;2024-02-15T05:33:37;96881.38;;;8.29;100.00
65614;BME280;52283;49.292;10.572;2024-02-15T05:36:08;96879.44;;;8.20;100.00
65614;BME280;52283;49.292;10.572;2024-02-15T05:38:35;96888.09;;;8.22;100.00
65614;BME280;52283;49.292;10.572;2024-02-15T05:41:01;96894.28;;;8.02;100.00
65614;BME280;52283;49.292;10.572;2024-02-15T05:43:28;96888.28;;;8.18;100.00
65614;BME280;52283;49.292;10.572;2024-02-15T05:45:55;96893.38;;;8.20;100.00
65614;BME280;52283;49.292;10.572;2024-02-15T05:48:23;96886.47;;;8.30;100.00
65614;BME280;52283;49.292;10.572;2024-02-15T05:50:51;96880.06;;;8.00;100.00
65614;BME280;52283;49.292;10.572;2024-02-15T05:53:19;96884.25;;;7.81;100.00
65614;BME280;52283;49.292;10.572;2024-02-15T05:55:46;96878.50;;;8.23;100.00
65614;BME280;52283;49.292;10.572;2024-02-15T05:58:15;96882.47;;;8.46;100.00
65614;BME280;52283;49.292;10.572;2024-02-15T06:00:42;96877.59;;;8.55;100.00
65614;BME280;52283;49.292;10.572;2024-02-15T06:03:09;96874.72;;;8.35;100.00
65614;BME280;52283;49.292;10.572;2024-02-15T06:05:37;96873.47;;;8.36;100.00
65614;BME280;52283;49.292;10.572;2024-02-15T06:08:06;96874.44;;;8.63;100.00
65614;BME280;52283;49.292;10.572;2024-02-15T06:10:33;96874.06;;;8.55;100.00
65614;BME280;52283;49.292;10.572;2024-02-15T06:12:59;96883.66;;;8.83;100.00
65614;BME280;52283;49.292;10.572;2024-02-15T06:15:26;96883.28;;;8.76;100.00
65614;BME280;52283;49.292;10.572;2024-02-15T06:17:52;96875.69;;;8.76;100.00
65614;BME280;52283;49.292;10.572;2024-02-15T06:20:19;96880.16;;;8.74;100.00
65614;BME280;52283;49.292;10.572;2024-02-15T06:22:46;96875.16;;;8.93;100.00
65614;BME280;52283;49.292;10.572;2024-02-15T06:25:14;96876.13;;;8.90;100.00
65614;BME280;52283;49.292;10.572;2024-02-15T06:27:45;96881.44;;;8.88;100.00
65614;BME280;52283;49.292;10.572;2024-02-15T06:30:14;96891.59;;;8.91;100.00
65614;BME280;52283;49.292;10.572;2024-02-15T06:32:59;96897.84;;;8.71;100.00
65614;BME280;52283;49.292;10.572;2024-02-15T06:35:43;96899.13;;;8.31;100.00
65614;BME280;52283;49.292;10.572;2024-02-15T06:38:27;96897.47;;;7.38;100.00
65614;BME280;52283;49.292;10.572;2024-02-15T06:41:13;96881.94;;;7.55;100.00
65614;BME280;52283;49.292;10.572;2024-02-15T06:43:40;96888.34;;;8.09;100.00
65614;BME280;52283;49.292;10.572;2024-02-15T06:46:07;96880.03;;;8.24;100.00
65614;BME280;52283;49.292;10.572;2024-02-15T06:48:34;96882.00;;;8.47;100.00
65614;BME280;52283;49.292;10.572;2024-02-15T06:51:00;96895.72;;;8.51;100.00
65614;BME280;52283;49.292;10.572;2024-02-15T06:53:28;96889.31;;;8.45;100.00
65614;BME280;52283;49.292;10.572;2024-02-15T06:55:55;96893.53;;;8.40;100.00
65614;BME280;52283;49.292;10.572;2024-02-15T06:58:23;96888.94;;;8.13;100.00
65614;BME280;52283;49.292;10.572;2024-02-15T07:00:50;96883.75;;;8.60;100.00
65614;BME280;52283;49.292;10.572;2024-02-15T07:03:16;96884.31;;;8.78;100.00
65614;BME280;52283;49.292;10.572;2024-02-15T07:05:43;96895.66;;;8.75;100.00
65614;BME280;52283;49.292;10.572;2024-02-15T07:08:09;96894.38;;;8.46;100.00
65614;BME280;52283;49.292;10.572;2024-02-15T07:10:37;96890.16;;;8.51;100.00
65614;BME280;52283;49.292;10.572;2024-02-15T07:13:05;96899.19;;;8.46;100.00
65614;BME280;52283;49.292;10.572;2024-02-15T07:15:33;96903.75;;;8.19;100.00
65614;BME280;52283;49.292;10.572;2024-02-15T07:18:04;96908.72;;;8.15;100.00
65614;BME280;52283;49.292;10.572;2024-02-15T07:20:31;96900.69;;;7.93;100.00
65614;BME280;52283;49.292;10.572;2024-02-15T07:22:58;96894.28;;;8.41;100.00
65614;BME280;52283;49.292;10.572;2024-02-15T07:25:25;96902.47;;;8.59;100.00
65614;BME280;52283;49.292;10.572;2024-02-15T07:27:51;96890.56;;;8.59;100.00
65614;BME280;52283;49.292;10.572;2024-02-15T07:30:19;96887.31;;;8.75;100.00
65614;BME280;52283;49.292;10.572;2024-02-15T07:32:47;96887.88;;;8.79;100.00
65614;BME280;52283;49.292;10.572;2024-02-15T07:35:14;96887.97;;;8.84;100.00
65614;BME280;52283;49.292;10.572;2024-02-15T07:37:51;96889.22;;;8.98;100.00
65614;BME280;52283;49.292;10.572;2024-02-15T07:40:18;96891.88;;;9.07;100.00
65614;BME280;52283;49.292;10.572;2024-02-15T07:42:47;96891.47;;;9.14;100.00
65614;BME280;52283;49.292;10.572;2024-02-15T07:45:14;96897.25;;;9.26;100.00
65614;BME280;52283;49.292;10.572;2024-02-15T07:47:40;96895.19;;;9.41;100.00
65614;BME280;52283;49.292;10.572;2024-02-15T07:50:09;96894.91;;;9.39;100.00
65614;BME280;52283;49.292;10.572;2024-02-15T07:52:35;96893.81;;;9.51;100.00
65614;BME280;52283;49.292;10.572;2024-02-15T07:55:02;96892.44;;;9.61;100.00
65614;BME280;52283;49.292;10.572;2024-02-15T07:57:34;96897.66;;;9.74;100.00
65614;BME280;52283;49.292;10.572;2024-02-15T08:00:00;96905.00;;;9.71;100.00
65614;BME280;52283;49.292;10.572;2024-02-15T08:02:28;96904.50;;;9.73;100.00
65614;BME280;52283;49.292;10.572;2024-02-15T08:04:55;96902.09;;;9.81;100.00
65614;BME280;52283;49.292;10.572;2024-02-15T08:07:23;96909.75;;;9.86;100.00
65614;BME280;52283;49.292;10.572;2024-02-15T08:09:50;96898.63;;;9.71;100.00
65614;BME280;52283;49.292;10.572;2024-02-15T08:12:17;96890.22;;;9.86;100.00
65614;BME280;52283;49.292;10.572;2024-02-15T08:14:44;96884.19;;;9.93;100.00
65614;BME280;52283;49.292;10.572;2024-02-15T08:17:10;96885.53;;;9.77;100.00
65614;BME280;52283;49.292;10.572;2024-02-15T08:19:39;96886.78;;;9.96;100.00
65614;BME280;52283;49.292;10.572;2024-02-15T08:22:07;96884.69;;;9.91;100.00
65614;BME280;52283;49.292;10.572;2024-02-15T08:24:35;96884.91;;;9.88;100.00
65614;BME280;52283;49.292;10.572;2024-02-15T08:27:02;96883.09;;;9.85;100.00
65614;BME280;52283;49.292;10.572;2024-02-15T08:29:30;96879.31;;;9.88;100.00
65614;BME280;52283;49.292;10.572;2024-02-15T08:31:56;96863.69;;;9.96;100.00
65614;BME280;52283;49.292;10.572;2024-02-15T08:34:23;96862.09;;;9.89;100.00
65614;BME280;52283;49.292;10.572;2024-02-15T08:36:50;96866.13;;;9.88;100.00
65614;BME280;52283;49.292;10.572;2024-02-15T08:39:16;96860.59;;;9.94;100.00
65614;BME280;52283;49.292;10.572;2024-02-15T08:41:44;96859.06;;;10.13;100.00
65614;BME280;52283;49.292;10.572;2024-02-15T08:44:11;96861.34;;;10.15;100.00
65614;BME280;52283;49.292;10.572;2024-02-15T08:46:40;96867.47;;;10.39;100.00
65614;BME280;52283;49.292;10.572;2024-02-15T08:49:07;96866.19;;;10.34;100.00
65614;BME280;52283;49.292;10.572;2024-02-15T08:51:33;96860.03;;;10.30;100.00
65614;BME280;52283;49.292;10.572;2024-02-15T08:54:00;96860.31;;;10.32;100.00
65614;BME280;52283;49.292;10.572;2024-02-15T08:56:26;96848.38;;;10.32;100.00
65614;BME280;52283;49.292;10.572;2024-02-15T08:58:54;96861.41;;;10.41;100.00
65614;BME280;52283;49.292;10.572;2024-02-15T09:01:22;96864.81;;;10.50;100.00
65614;BME280;52283;49.292;10.572;2024-02-15T09:03:49;96860.50;;;10.49;100.00
65614;BME280;52283;49.292;10.572;2024-02-15T09:06:15;96858.63;;;10.66;100.00
65614;BME280;52283;49.292;10.572;2024-02-15T09:08:42;96865.25;;;10.69;100.00
65614;BME280;52283;49.292;10.572;2024-02-15T09:11:08;96865.06;;;10.78;100.00
65614;BME280;52283;49.292;10.572;2024-02-15T09:13:37;96861.38;;;10.92;100.00
65614;BME280;52283;49.292;10.572;2024-02-15T09:16:05;96855.59;;;11.02;100.00
65614;BME280;52283;49.292;10.572;2024-02-15T09:18:32;96846.28;;;11.10;100.00
65614;BME280;52283;49.292;10.572;2024-02-15T09:20:59;96848.84;;;11.14;100.00
65614;BME280;52283;49.292;10.572;2024-02-15T09:23:26;96851.81;;;11.42;100.00
65614;BME280;52283;49.292;10.572;2024-02-15T09:25:52;96848.47;;;11.38;100.00
65614;BME280;52283;49.292;10.572;2024-02-15T09:28:19;96851.00;;;11.36;100.00
65614;BME280;52283;49.292;10.572;2024-02-15T09:30:47;96850.19;;;11.67;100.00
65614;BME280;52283;49.292;10.572;2024-02-15T09:33:18;96850.19;;;11.67;100.00
65614;BME280;52283;49.292;10.572;2024-02-15T09:35:44;96846.44;;;11.81;100.00
65614;BME280;52283;49.292;10.572;2024-02-15T09:38:12;96847.28;;;11.98;100.00
65614;BME280;52283;49.292;10.572;2024-02-15T09:40:38;96848.16;;;11.73;100.00
65614;BME280;52283;49.292;10.572;2024-02-15T09:43:06;96842.56;;;12.32;100.00
65614;BME280;52283;49.292;10.572;2024-02-15T09:45:32;96845.53;;;12.06;100.00
65614;BME280;52283;49.292;10.572;2024-02-15T09:48:05;96838.88;;;11.98;100.00
65614;BME280;52283;49.292;10.572;2024-02-15T09:50:34;96845.81;;;12.08;100.00
65614;BME280;52283;49.292;10.572;2024-02-15T09:53:02;96840.66;;;12.01;100.00
65614;BME280;52283;49.292;10.572;2024-02-15T09:55:33;96831.31;;;12.21;100.00
65614;BME280;52283;49.292;10.572;2024-02-15T09:58:00;96834.66;;;12.31;100.00
65614;BME280;52283;49.292;10.572;2024-02-15T10:00:30;96822.44;;;12.39;100.00
65614;BME280;52283;49.292;10.572;2024-02-15T10:02:57;96826.47;;;12.27;100.00
65614;BME280;52283;49.292;10.572;2024-02-15T10:05:26;96832.34;;;12.24;100.00
65614;BME280;52283;49.292;10.572;2024-02-15T10:07:54;96823.41;;;12.14;100.00
65614;BME280;52283;49.292;10.572;2024-02-15T10:10:22;96832.56;;;12.14;100.00
65614;BME280;52283;49.292;10.572;2024-02-15T10:12:51;96836.72;;;12.41;100.00
65614;BME280;52283;49.292;10.572;2024-02-15T10:15:27;96830.13;;;12.56;100.00
65614;BME280;52283;49.292;10.572;2024-02-15T10:17:55;96826.31;;;12.75;100.00
65614;BME280;52283;49.292;10.572;2024-02-15T10:20:23;96831.41;;;12.88;100.00
65614;BME280;52283;49.292;10.572;2024-02-15T10:22:51;96817.91;;;12.92;100.00
65614;BME280;52283;49.292;10.572;2024-02-15T10:25:20;96819.94;;;13.14;100.00
65614;BME280;52283;49.292;10.572;2024-02-15T10:27:47;96821.69;;;13.28;100.00
65614;BME280;52283;49.292;10.572;2024-02-15T10:30:15;96823.69;;;13.50;100.00
65614;BME280;52283;49.292;10.572;2024-02-15T10:32:43;96816.03;;;13.62;100.00
65614;BME280;52283;49.292;10.572;2024-02-15T10:35:09;96816.59;;;12.60;100.00
65614;BME280;52283;49.292;10.572;2024-02-15T10:37:40;96823.00;;;13.22;100.00
65614;BME280;52283;49.292;10.572;2024-02-15T10:40:08;96813.56;;;12.52;100.00
65614;BME280;52283;49.292;10.572;2024-02-15T10:42:37;96809.72;;;13.00;100.00
65614;BME280;52283;49.292;10.572;2024-02-15T10:45:07;96795.72;;;12.72;100.00
65614;BME280;52283;49.292;10.572;2024-02-15T10:47:37;96798.50;;;13.28;100.00
65614;BME280;52283;49.292;10.572;2024-02-15T10:50:06;96794.19;;;12.82;100.00
65614;BME280;52283;49.292;10.572;2024-02-15T10:52:35;96799.78;;;12.88;100.00
65614;BME280;52283;49.292;10.572;2024-02-15T10:55:05;96787.78;;;12.87;100.00
65614;BME280;52283;49.292;10.572;2024-02-15T10:57:43;96778.25;;;13.57;100.00
65614;BME280;52283;49.292;10.572;2024-02-15T11:00:14;96763.88;;;13.78;100.00
65614;BME280;52283;49.292;10.572;2024-02-15T11:02:50;96764.75;;;13.56;100.00
65614;BME280;52283;49.292;10.572;2024-02-15T11:05:21;96768.25;;;13.67;100.00
65614;BME280;52283;49.292;10.572;2024-02-15T11:10:16;96754.13;;;13.84;100.00
65614;BME280;52283;49.292;10.572;2024-02-15T11:12:44;96744.47;;;13.74;100.00
65614;BME280;52283;49.292;10.572;2024-02-15T11:15:41;96730.56;;;13.98;100.00
65614;BME280;52283;49.292;10.572;2024-02-15T11:18:10;96730.56;;;14.40;100.00
65614;BME280;52283;49.292;10.572;2024-02-15T11:20:47;96714.00;;;14.66;99.44
65614;BME280;52283;49.292;10.572;2024-02-15T11:23:27;96703.88;;;15.31;93.78
65614;BME280;52283;49.292;10.572;2024-02-15T11:25:54;96695.41;;;13.86;94.42
65614;BME280;52283;49.292;10.572;2024-02-15T11:28:38;96698.72;;;14.56;95.79
65614;BME280;52283;49.292;10.572;2024-02-15T11:31:09;96688.25;;;14.86;89.81
65614;BME280;52283;49.292;10.572;2024-02-15T11:33:37;96687.84;;;15.01;89.39
65614;BME280;52283;49.292;10.572;2024-02-15T11:36:05;96686.88;;;14.33;88.86
65614;BME280;52283;49.292;10.572;2024-02-15T11:38:32;96685.72;;;15.07;85.79
65614;BME280;52283;49.292;10.572;2024-02-15T11:41:03;96680.84;;;15.08;86.39
65614;BME280;52283;49.292;10.572;2024-02-15T11:43:49;96669.38;;;15.06;82.26
65614;BME280;52283;49.292;10.572;2024-02-15T11:46:21;96666.13;;;15.82;83.75
65614;BME280;52283;49.292;10.572;2024-02-15T11:48:50;96661.91;;;15.51;80.13
65614;BME280;52283;49.292;10.572;2024-02-15T11:51:27;96664.66;;;15.14;81.94
65614;BME280;52283;49.292;10.572;2024-02-15T11:54:02;96684.59;;;14.91;87.87
65614;BME280;52283;49.292;10.572;2024-02-15T11:56:31;96671.78;;;15.58;84.74
65614;BME280;52283;49.292;10.572;2024-02-15T11:59:04;96668.41;;;15.65;83.51
65614;BME280;52283;49.292;10.572;2024-02-15T12:01:31;96680.91;;;14.48;85.93
65614;BME280;52283;49.292;10.572;2024-02-15T12:04:16;96677.91;;;15.19;88.26
65614;BME280;52283;49.292;10.572;2024-02-15T12:07:02;96670.19;;;14.46;87.93
65614;BME280;52283;49.292;10.572;2024-02-15T12:09:58;96678.94;;;14.37;91.60
65614;BME280;52283;49.292;10.572;2024-02-15T12:12:50;96677.25;;;14.58;91.15
65614;BME280;52283;49.292;10.572;2024-02-15T12:15:36;96674.63;;;14.30;93.29
65614;BME280;52283;49.292;10.572;2024-02-15T12:18:20;96672.66;;;14.85;91.46
65614;BME280;52283;49.292;10.572;2024-02-15T12:21:04;96658.75;;;14.69;88.62
65614;BME280;52283;49.292;10.572;2024-02-15T12:23:32;96663.97;;;14.59;90.15
65614;BME280;52283;49.292;10.572;2024-02-15T12:26:01;96662.16;;;14.26;90.40
65614;BME280;52283;49.292;10.572;2024-02-15T12:28:28;96653.28;;;14.76;86.81
65614;BME280;52283;49.292;10.572;2024-02-15T12:30:56;96643.47;;;15.50;84.60
65614;BME280;52283;49.292;10.572;2024-02-15T12:33:23;96637.09;;;15.88;82.19
65614;BME280;52283;49.292;10.572;2024-02-15T12:35:50;96643.41;;;15.56;81.86
65614;BME280;52283;49.292;10.572;2024-02-15T12:38:17;96645.59;;;14.77;86.43
65614;BME280;52283;49.292;10.572;2024-02-15T12:40:45;96640.09;;;15.14;85.34
65614;BME280;52283;49.292;10.572;2024-02-15T12:43:12;96632.66;;;14.68;85.22
65614;BME280;52283;49.292;10.572;2024-02-15T12:45:41;96638.34;;;14.62;86.86
65614;BME280;52283;49.292;10.572;2024-02-15T12:48:09;96630.38;;;14.91;85.17
65614;BME280;52283;49.292;10.572;2024-02-15T12:50:36;96628.81;;;14.41;85.52
65614;BME280;52283;49.292;10.572;2024-02-15T12:53:03;96638.97;;;14.50;87.87
65614;BME280;52283;49.292;10.572;2024-02-15T12:55:32;96626.72;;;14.17;87.26
65614;BME280;52283;49.292;10.572;2024-02-15T12:58:01;96617.19;;;15.05;84.69